sensor_id;sensor_type;location;lat;lon;timestamp;temperature;humidity
75893;DHT22;64572;50.950;3.676;2023-04-01T00:00:47;9.80;99.90
75893;DHT22;64572;50.950;3.676;2023-04-01T00:03:13;9.80;99.90
75893;DHT22;64572;50.950;3.676;2023-04-01T00:05:39;9.80;99.90
75893;DHT22;64572;50.950;3.676;2023-04-01T00:08:04;9.80;99.90
75893;DHT22;64572;50.950;3.676;2023-04-01T00:10:30;9.80;99.90
75893;DHT22;64572;50.950;3.676;2023-04-01T00:12:56;9.80;99.90
75893;DHT22;64572;50.950;3.676;2023-04-01T00:15:22;9.80;99.90
75893;DHT22;64572;50.950;3.676;2023-04-01T00:17:47;9.80;99.90
75893;DHT22;64572;50.950;3.676;2023-04-01T00:20:13;9.80;99.90
75893;DHT22;64572;50.950;3.676;2023-04-01T00:22:40;9.80;99.90
75893;DHT22;64572;50.950;3.676;2023-04-01T00:25:06;9.80;99.90
75893;DHT22;64572;50.950;3.676;2023-04-01T00:27:32;9.80;99.90
75893;DHT22;64572;50.950;3.676;2023-04-01T00:29:58;9.80;99.90
75893;DHT22;64572;50.950;3.676;2023-04-01T00:32:24;9.80;99.90
75893;DHT22;64572;50.950;3.676;2023-04-01T00:34:51;9.70;99.90
75893;DHT22;64572;50.950;3.676;2023-04-01T00:37:17;9.70;99.90
75893;DHT22;64572;50.950;3.676;2023-04-01T00:39:43;9.70;99.90
75893;DHT22;64572;50.950;3.676;2023-04-01T00:42:10;9.70;99.90
75893;DHT22;64572;50.950;3.676;2023-04-01T00:44:38;9.80;99.90
75893;DHT22;64572;50.950;3.676;2023-04-01T00:47:04;9.80;99.90
75893;DHT22;64572;50.950;3.676;2023-04-01T00:49:33;9.70;99.90
75893;DHT22;64572;50.950;3.676;2023-04-01T00:52:02;9.70;99.90
75893;DHT22;64572;50.950;3.676;2023-04-01T00:54:29;9.70;99.90
75893;DHT22;64572;50.950;3.676;2023-04-01T00:56:57;9.60;99.90
75893;DHT22;64572;50.950;3.676;2023-04-01T00:59:30;9.60;99.90
75893;DHT22;64572;50.950;3.676;2023-04-01T01:01:58;9.60;99.90
75893;DHT22;64572;50.950;3.676;2023-04-01T01:04:28;9.60;99.90
75893;DHT22;64572;50.950;3.676;2023-04-01T01:10:11;9.60;99.90
75893;DHT22;64572;50.950;3.676;2023-04-01T01:15:26;9.50;99.90
75893;DHT22;64572;50.950;3.676;2023-04-01T01:18:22;9.50;99.90
75893;DHT22;64572;50.950;3.676;2023-04-01T01:26:22;9.40;99.90
75893;DHT22;64572;50.950;3.676;2023-04-01T01:32:03;9.40;99.90
75893;DHT22;64572;50.950;3.676;2023-04-01T01:37:23;9.40;99.90
75893;DHT22;64572;50.950;3.676;2023-04-01T01:39:56;9.30;99.90
75893;DHT22;64572;50.950;3.676;2023-04-01T01:42:25;9.30;99.90
75893;DHT22;64572;50.950;3.676;2023-04-01T01:44:53;9.30;99.90
75893;DHT22;64572;50.950;3.676;2023-04-01T01:47:22;9.30;99.90
75893;DHT22;64572;50.950;3.676;2023-04-01T01:49:49;9.30;99.90
75893;DHT22;64572;50.950;3.676;2023-04-01T01:52:17;9.30;99.90
75893;DHT22;64572;50.950;3.676;2023-04-01T01:54:54;9.30;99.90
75893;DHT22;64572;50.950;3.676;2023-04-01T01:57:28;9.30;99.90
75893;DHT22;64572;50.950;3.676;2023-04-01T01:59:58;9.30;99.90
75893;DHT22;64572;50.950;3.676;2023-04-01T02:02:26;9.30;99.90
75893;DHT22;64572;50.950;3.676;2023-04-01T02:04:53;9.30;99.90
75893;DHT22;64572;50.950;3.676;2023-04-01T02:07:24;9.30;99.90
75893;DHT22;64572;50.950;3.676;2023-04-01T02:09:51;9.30;99.90
75893;DHT22;64572;50.950;3.676;2023-04-01T02:12:19;9.30;99.90
75893;DHT22;64572;50.950;3.676;2023-04-01T02:14:52;9.40;99.90
75893;DHT22;64572;50.950;3.676;2023-04-01T02:17:21;9.30;99.90
75893;DHT22;64572;50.950;3.676;2023-04-01T02:19:51;9.30;99.90
75893;DHT22;64572;50.950;3.676;2023-04-01T02:22:21;9.40;99.90
75893;DHT22;64572;50.950;3.676;2023-04-01T02:24:52;9.40;99.90
75893;DHT22;64572;50.950;3.676;2023-04-01T02:27:19;9.40;99.90
75893;DHT22;64572;50.950;3.676;2023-04-01T02:29:45;9.40;99.90
75893;DHT22;64572;50.950;3.676;2023-04-01T02:32:13;9.40;99.90
75893;DHT22;64572;50.950;3.676;2023-04-01T02:34:39;9.50;99.90
75893;DHT22;64572;50.950;3.676;2023-04-01T02:37:06;9.50;99.90
75893;DHT22;64572;50.950;3.676;2023-04-01T02:39:31;9.60;99.90
75893;DHT22;64572;50.950;3.676;2023-04-01T02:41:57;9.50;99.90
75893;DHT22;64572;50.950;3.676;2023-04-01T02:44:23;9.60;99.90
75893;DHT22;64572;50.950;3.676;2023-04-01T02:46:49;9.60;99.90
75893;DHT22;64572;50.950;3.676;2023-04-01T02:49:15;9.60;99.90
75893;DHT22;64572;50.950;3.676;2023-04-01T02:51:41;9.60;99.90
75893;DHT22;64572;50.950;3.676;2023-04-01T02:54:07;9.60;99.90
75893;DHT22;64572;50.950;3.676;2023-04-01T02:56:32;9.60;99.90
75893;DHT22;64572;50.950;3.676;2023-04-01T02:58:58;9.60;99.90
75893;DHT22;64572;50.950;3.676;2023-04-01T03:01:24;9.60;99.90
75893;DHT22;64572;50.950;3.676;2023-04-01T03:03:49;9.60;99.90
75893;DHT22;64572;50.950;3.676;2023-04-01T03:06:15;9.60;99.90
75893;DHT22;64572;50.950;3.676;2023-04-01T03:08:42;9.60;99.90
75893;DHT22;64572;50.950;3.676;2023-04-01T03:11:09;9.60;99.90
75893;DHT22;64572;50.950;3.676;2023-04-01T03:13:35;9.60;99.90
75893;DHT22;64572;50.950;3.676;2023-04-01T03:16:01;9.60;99.90
75893;DHT22;64572;50.950;3.676;2023-04-01T03:18:27;9.60;99.90
75893;DHT22;64572;50.950;3.676;2023-04-01T03:20:52;9.60;99.90
75893;DHT22;64572;50.950;3.676;2023-04-01T03:23:18;9.50;99.90
75893;DHT22;64572;50.950;3.676;2023-04-01T03:25:46;9.50;99.90
75893;DHT22;64572;50.950;3.676;2023-04-01T03:28:12;9.50;99.90
75893;DHT22;64572;50.950;3.676;2023-04-01T03:30:39;9.40;99.90
75893;DHT22;64572;50.950;3.676;2023-04-01T03:33:05;9.40;99.90
75893;DHT22;64572;50.950;3.676;2023-04-01T03:35:31;9.40;99.90
75893;DHT22;64572;50.950;3.676;2023-04-01T03:37:56;9.40;99.90
75893;DHT22;64572;50.950;3.676;2023-04-01T03:40:22;9.40;99.90
75893;DHT22;64572;50.950;3.676;2023-04-01T03:42:49;9.30;99.90
75893;DHT22;64572;50.950;3.676;2023-04-01T03:45:15;9.30;99.90
75893;DHT22;64572;50.950;3.676;2023-04-01T03:47:41;9.30;99.90
75893;DHT22;64572;50.950;3.676;2023-04-01T03:50:07;9.30;99.90
75893;DHT22;64572;50.950;3.676;2023-04-01T03:52:34;9.20;99.90
75893;DHT22;64572;50.950;3.676;2023-04-01T03:55:00;9.20;99.90
75893;DHT22;64572;50.950;3.676;2023-04-01T03:57:26;9.20;99.90
75893;DHT22;64572;50.950;3.676;2023-04-01T03:59:52;9.20;99.90
75893;DHT22;64572;50.950;3.676;2023-04-01T04:02:18;9.20;99.90
75893;DHT22;64572;50.950;3.676;2023-04-01T04:04:44;9.20;99.90
75893;DHT22;64572;50.950;3.676;2023-04-01T04:07:11;9.20;99.90
75893;DHT22;64572;50.950;3.676;2023-04-01T04:09:37;9.20;99.90
75893;DHT22;64572;50.950;3.676;2023-04-01T04:12:03;9.20;99.90
75893;DHT22;64572;50.950;3.676;2023-04-01T04:14:31;9.20;99.90
75893;DHT22;64572;50.950;3.676;2023-04-01T04:16:56;9.20;99.90
75893;DHT22;64572;50.950;3.676;2023-04-01T04:19:22;9.20;99.90
75893;DHT22;64572;50.950;3.676;2023-04-01T04:21:48;9.20;99.90
75893;DHT22;64572;50.950;3.676;2023-04-01T04:24:14;9.20;99.90
75893;DHT22;64572;50.950;3.676;2023-04-01T04:26:39;9.20;99.90
75893;DHT22;64572;50.950;3.676;2023-04-01T04:29:07;9.30;99.90
75893;DHT22;64572;50.950;3.676;2023-04-01T04:31:33;9.30;99.90
75893;DHT22;64572;50.950;3.676;2023-04-01T04:34:00;9.20;99.90
75893;DHT22;64572;50.950;3.676;2023-04-01T04:36:28;9.20;99.90
75893;DHT22;64572;50.950;3.676;2023-04-01T04:38:54;9.30;99.90
75893;DHT22;64572;50.950;3.676;2023-04-01T04:41:20;9.30;99.90
75893;DHT22;64572;50.950;3.676;2023-04-01T04:43:52;9.30;99.90
75893;DHT22;64572;50.950;3.676;2023-04-01T04:46:19;9.30;99.90
75893;DHT22;64572;50.950;3.676;2023-04-01T04:48:45;9.30;99.90
75893;DHT22;64572;50.950;3.676;2023-04-01T04:51:15;9.30;99.90
75893;DHT22;64572;50.950;3.676;2023-04-01T04:53:41;9.30;99.90
75893;DHT22;64572;50.950;3.676;2023-04-01T04:56:07;9.30;99.90
75893;DHT22;64572;50.950;3.676;2023-04-01T04:58:32;9.30;99.90
75893;DHT22;64572;50.950;3.676;2023-04-01T05:00:59;9.30;99.90
75893;DHT22;64572;50.950;3.676;2023-04-01T05:03:30;9.30;99.90
75893;DHT22;64572;50.950;3.676;2023-04-01T05:05:55;9.20;99.90
75893;DHT22;64572;50.950;3.676;2023-04-01T05:08:21;9.30;99.90
75893;DHT22;64572;50.950;3.676;2023-04-01T05:10:47;9.30;99.90
75893;DHT22;64572;50.950;3.676;2023-04-01T05:13:12;9.30;99.90
75893;DHT22;64572;50.950;3.676;2023-04-01T05:15:38;9.20;99.90
75893;DHT22;64572;50.950;3.676;2023-04-01T05:18:04;9.30;99.90
75893;DHT22;64572;50.950;3.676;2023-04-01T05:20:29;9.20;99.90
75893;DHT22;64572;50.950;3.676;2023-04-01T05:22:59;9.20;99.90
75893;DHT22;64572;50.950;3.676;2023-04-01T05:25:25;9.30;99.90
75893;DHT22;64572;50.950;3.676;2023-04-01T05:27:51;9.30;99.90
75893;DHT22;64572;50.950;3.676;2023-04-01T05:30:17;9.30;99.90
75893;DHT22;64572;50.950;3.676;2023-04-01T05:32:42;9.30;99.90
75893;DHT22;64572;50.950;3.676;2023-04-01T05:35:09;9.30;99.90
75893;DHT22;64572;50.950;3.676;2023-04-01T05:37:35;9.30;99.90
75893;DHT22;64572;50.950;3.676;2023-04-01T05:40:01;9.30;99.90
75893;DHT22;64572;50.950;3.676;2023-04-01T05:42:27;9.30;99.90
75893;DHT22;64572;50.950;3.676;2023-04-01T05:44:52;9.30;99.90
75893;DHT22;64572;50.950;3.676;2023-04-01T05:47:18;9.30;99.90
75893;DHT22;64572;50.950;3.676;2023-04-01T05:49:43;9.20;99.90
75893;DHT22;64572;50.950;3.676;2023-04-01T05:52:09;9.20;99.90
75893;DHT22;64572;50.950;3.676;2023-04-01T05:54:35;9.10;99.90
75893;DHT22;64572;50.950;3.676;2023-04-01T05:57:01;9.10;99.90
75893;DHT22;64572;50.950;3.676;2023-04-01T05:59:26;9.10;99.90
75893;DHT22;64572;50.950;3.676;2023-04-01T06:01:52;9.10;99.90
75893;DHT22;64572;50.950;3.676;2023-04-01T06:04:18;9.10;99.90
75893;DHT22;64572;50.950;3.676;2023-04-01T06:06:44;9.10;99.90
75893;DHT22;64572;50.950;3.676;2023-04-01T06:09:26;9.10;99.90
75893;DHT22;64572;50.950;3.676;2023-04-01T06:18:26;9.00;99.90
75893;DHT22;64572;50.950;3.676;2023-04-01T06:26:39;9.00;99.90
75893;DHT22;64572;50.950;3.676;2023-04-01T06:46:18;9.20;99.90
75893;DHT22;64572;50.950;3.676;2023-04-01T06:48:49;9.20;99.90
75893;DHT22;64572;50.950;3.676;2023-04-01T06:51:38;9.20;99.90
75893;DHT22;64572;50.950;3.676;2023-04-01T06:54:31;9.20;99.90
75893;DHT22;64572;50.950;3.676;2023-04-01T06:57:04;9.20;99.90
75893;DHT22;64572;50.950;3.676;2023-04-01T06:59:33;9.20;99.90
75893;DHT22;64572;50.950;3.676;2023-04-01T07:04:43;9.20;99.90
75893;DHT22;64572;50.950;3.676;2023-04-01T07:07:37;9.20;99.90
75893;DHT22;64572;50.950;3.676;2023-04-01T07:10:20;9.10;99.90
75893;DHT22;64572;50.950;3.676;2023-04-01T07:12:54;9.10;99.90
75893;DHT22;64572;50.950;3.676;2023-04-01T07:15:39;9.10;99.90
75893;DHT22;64572;50.950;3.676;2023-04-01T07:18:15;9.10;99.90
75893;DHT22;64572;50.950;3.676;2023-04-01T07:20:42;9.20;99.90
75893;DHT22;64572;50.950;3.676;2023-04-01T07:25:52;9.20;99.90
75893;DHT22;64572;50.950;3.676;2023-04-01T07:28:19;9.20;99.90
75893;DHT22;64572;50.950;3.676;2023-04-01T07:36:26;9.20;99.90
75893;DHT22;64572;50.950;3.676;2023-04-01T07:39:30;9.20;99.90
75893;DHT22;64572;50.950;3.676;2023-04-01T07:44:59;9.20;99.90
75893;DHT22;64572;50.950;3.676;2023-04-01T07:50:02;9.20;99.90
75893;DHT22;64572;50.950;3.676;2023-04-01T07:52:38;9.10;99.90
75893;DHT22;64572;50.950;3.676;2023-04-01T07:55:42;9.20;99.90
75893;DHT22;64572;50.950;3.676;2023-04-01T08:06:25;9.30;99.90
75893;DHT22;64572;50.950;3.676;2023-04-01T08:14:43;9.40;99.90
75893;DHT22;64572;50.950;3.676;2023-04-01T08:23:52;9.50;99.90
75893;DHT22;64572;50.950;3.676;2023-04-01T08:36:34;9.70;99.90
75893;DHT22;64572;50.950;3.676;2023-04-01T08:39:08;9.70;99.90
75893;DHT22;64572;50.950;3.676;2023-04-01T08:52:50;9.60;99.90
75893;DHT22;64572;50.950;3.676;2023-04-01T08:55:38;9.50;99.90
75893;DHT22;64572;50.950;3.676;2023-04-01T09:10:44;9.80;99.90
75893;DHT22;64572;50.950;3.676;2023-04-01T09:13:18;9.80;99.90
75893;DHT22;64572;50.950;3.676;2023-04-01T09:18:47;9.80;99.90
75893;DHT22;64572;50.950;3.676;2023-04-01T09:21:33;9.70;99.90
75893;DHT22;64572;50.950;3.676;2023-04-01T09:45:05;9.70;99.90
75893;DHT22;64572;50.950;3.676;2023-04-01T10:20:55;9.90;99.90
75893;DHT22;64572;50.950;3.676;2023-04-01T10:27:21;9.90;99.90
75893;DHT22;64572;50.950;3.676;2023-04-01T10:49:37;10.00;99.90
75893;DHT22;64572;50.950;3.676;2023-04-01T11:18:40;10.30;99.90
75893;DHT22;64572;50.950;3.676;2023-04-01T11:24:32;9.80;99.90
75893;DHT22;64572;50.950;3.676;2023-04-01T11:32:54;10.00;99.90
75893;DHT22;64572;50.950;3.676;2023-04-01T11:41:31;10.00;99.90
75893;DHT22;64572;50.950;3.676;2023-04-01T11:47:13;10.00;99.90
75893;DHT22;64572;50.950;3.676;2023-04-01T12:11:17;9.80;99.90
75893;DHT22;64572;50.950;3.676;2023-04-01T12:19:18;9.80;99.90
75893;DHT22;64572;50.950;3.676;2023-04-01T12:24:40;9.70;99.90
75893;DHT22;64572;50.950;3.676;2023-04-01T12:30:26;10.10;99.90
75893;DHT22;64572;50.950;3.676;2023-04-01T12:39:52;9.80;99.90
75893;DHT22;64572;50.950;3.676;2023-04-01T12:55:40;10.00;99.90
75893;DHT22;64572;50.950;3.676;2023-04-01T13:07:08;9.80;99.90
75893;DHT22;64572;50.950;3.676;2023-04-01T13:10:26;9.80;99.90
75893;DHT22;64572;50.950;3.676;2023-04-01T13:32:20;9.70;99.90
75893;DHT22;64572;50.950;3.676;2023-04-01T13:44:28;9.50;99.90
75893;DHT22;64572;50.950;3.676;2023-04-01T13:49:26;9.50;99.90
75893;DHT22;64572;50.950;3.676;2023-04-01T14:04:49;9.40;99.90
75893;DHT22;64572;50.950;3.676;2023-04-01T14:11:32;9.40;99.90
75893;DHT22;64572;50.950;3.676;2023-04-01T14:49:22;9.30;99.90
75893;DHT22;64572;50.950;3.676;2023-04-01T14:55:32;9.20;99.90
75893;DHT22;64572;50.950;3.676;2023-04-01T14:58:00;9.30;99.90
75893;DHT22;64572;50.950;3.676;2023-04-01T15:26:54;9.10;99.90
75893;DHT22;64572;50.950;3.676;2023-04-01T15:39:56;9.10;99.90
75893;DHT22;64572;50.950;3.676;2023-04-01T15:42:42;9.20;99.90
75893;DHT22;64572;50.950;3.676;2023-04-01T15:48:50;9.20;99.90
75893;DHT22;64572;50.950;3.676;2023-04-01T15:52:10;9.20;99.90
75893;DHT22;64572;50.950;3.676;2023-04-01T16:22:38;9.10;99.90
75893;DHT22;64572;50.950;3.676;2023-04-01T16:50:20;9.00;99.90
75893;DHT22;64572;50.950;3.676;2023-04-01T17:08:34;8.90;99.90
75893;DHT22;64572;50.950;3.676;2023-04-01T17:43:35;8.90;99.90
75893;DHT22;64572;50.950;3.676;2023-04-01T17:53:18;9.10;99.90
75893;DHT22;64572;50.950;3.676;2023-04-01T18:05:30;9.20;99.90
75893;DHT22;64572;50.950;3.676;2023-04-01T18:08:11;9.10;99.90
75893;DHT22;64572;50.950;3.676;2023-04-01T18:23:56;8.90;99.90
75893;DHT22;64572;50.950;3.676;2023-04-01T18:29:39;8.80;99.90
75893;DHT22;64572;50.950;3.676;2023-04-01T18:32:27;8.80;99.90
75893;DHT22;64572;50.950;3.676;2023-04-01T18:37:50;8.70;99.90
75893;DHT22;64572;50.950;3.676;2023-04-01T18:40:20;8.70;99.90
75893;DHT22;64572;50.950;3.676;2023-04-01T18:45:58;8.80;99.90
75893;DHT22;64572;50.950;3.676;2023-04-01T18:51:39;8.70;99.90
75893;DHT22;64572;50.950;3.676;2023-04-01T18:54:22;8.70;99.90
75893;DHT22;64572;50.950;3.676;2023-04-01T18:57:07;8.70;99.90
75893;DHT22;64572;50.950;3.676;2023-04-01T18:59:43;8.60;99.90
75893;DHT22;64572;50.950;3.676;2023-04-01T19:02:38;8.60;99.90
75893;DHT22;64572;50.950;3.676;2023-04-01T19:08:38;8.70;99.90
75893;DHT22;64572;50.950;3.676;2023-04-01T19:47:35;8.70;99.90
75893;DHT22;64572;50.950;3.676;2023-04-01T19:55:55;8.70;99.90
75893;DHT22;64572;50.950;3.676;2023-04-01T19:58:48;8.70;99.90
75893;DHT22;64572;50.950;3.676;2023-04-01T20:04:11;8.70;99.90
75893;DHT22;64572;50.950;3.676;2023-04-01T20:10:14;8.70;99.90
75893;DHT22;64572;50.950;3.676;2023-04-01T20:15:44;8.80;99.90
75893;DHT22;64572;50.950;3.676;2023-04-01T20:23:59;8.70;99.90
75893;DHT22;64572;50.950;3.676;2023-04-01T20:26:34;8.70;99.90
75893;DHT22;64572;50.950;3.676;2023-04-01T20:48:41;8.60;99.90
75893;DHT22;64572;50.950;3.676;2023-04-01T20:51:24;8.60;99.90
75893;DHT22;64572;50.950;3.676;2023-04-01T21:27:42;8.60;99.90
75893;DHT22;64572;50.950;3.676;2023-04-01T21:30:19;8.60;99.90
75893;DHT22;64572;50.950;3.676;2023-04-01T21:40:44;8.60;99.90
75893;DHT22;64572;50.950;3.676;2023-04-01T21:48:56;8.60;99.90
75893;DHT22;64572;50.950;3.676;2023-04-01T22:00:24;8.60;99.90
75893;DHT22;64572;50.950;3.676;2023-04-01T22:14:39;8.60;99.90
75893;DHT22;64572;50.950;3.676;2023-04-01T22:20:28;8.60;99.90
75893;DHT22;64572;50.950;3.676;2023-04-01T22:26:44;8.60;99.90
75893;DHT22;64572;50.950;3.676;2023-04-01T22:29:20;8.60;99.90
75893;DHT22;64572;50.950;3.676;2023-04-01T22:32:33;8.60;99.90
75893;DHT22;64572;50.950;3.676;2023-04-01T22:42:09;8.60;99.90
75893;DHT22;64572;50.950;3.676;2023-04-01T22:56:34;8.70;99.90
75893;DHT22;64572;50.950;3.676;2023-04-01T22:59:15;8.60;99.90
75893;DHT22;64572;50.950;3.676;2023-04-01T23:02:08;8.70;99.90
75893;DHT22;64572;50.950;3.676;2023-04-01T23:05:13;8.70;99.90
75893;DHT22;64572;50.950;3.676;2023-04-01T23:07:43;8.70;99.90
75893;DHT22;64572;50.950;3.676;2023-04-01T23:13:29;8.70;99.90
75893;DHT22;64572;50.950;3.676;2023-04-01T23:16:10;8.70;99.90
75893;DHT22;64572;50.950;3.676;2023-04-01T23:22:04;8.80;99.90
75893;DHT22;64572;50.950;3.676;2023-04-01T23:24:48;8.70;99.90
75893;DHT22;64572;50.950;3.676;2023-04-01T23:33:21;8.70;99.90
75893;DHT22;64572;50.950;3.676;2023-04-01T23:39:04;8.70;99.90
75893;DHT22;64572;50.950;3.676;2023-04-01T23:45:04;8.70;99.90
75893;DHT22;64572;50.950;3.676;2023-04-01T23:47:34;8.70;99.90
75893;DHT22;64572;50.950;3.676;2023-04-01T23:50:10;8.70;99.90
75893;DHT22;64572;50.950;3.676;2023-04-01T23:52:42;8.70;99.90
75893;DHT22;64572;50.950;3.676;2023-04-01T23:57:37;8.70;99.90
